Time;durP1;ratioP1;P1;durP2;ratioP2;P2;SDS_P1;SDS_P2;PMS_P1;PMS_P2;Temp;Humidity;BMP_temperature;BMP_pressure;BME280_temperature;BME280_humidity;BME280_pressure;Samples;Min_cycle;Max_cycle;Signal;HPM_P1;HPM_P2
2023/06/25 00:00:47;;;;;;;11.70;8.20;;;21.80;99.90;;;;;;5092603;28;20173;-63
2023/06/25 00:03:13;;;;;;;8.77;7.93;;;21.80;99.90;;;;;;5078234;28;20169;-63
2023/06/25 00:05:39;;;;;;;13.00;8.20;;;21.80;99.90;;;;;;5057899;28;20180;-63
2023/06/25 00:08:05;;;;;;;8.67;7.57;;;21.70;99.90;;;;;;5091382;28;20208;-63
2023/06/25 00:10:30;;;;;;;10.03;8.17;;;21.80;99.90;;;;;;5091149;28;20212;-62
2023/06/25 00:12:56;;;;;;;10.13;8.40;;;21.70;99.90;;;;;;5074252;28;20219;-62
2023/06/25 00:15:31;;;;;;;9.10;7.87;;;21.70;99.90;;;;;;5090885;28;20172;-62
2023/06/25 00:17:57;;;;;;;10.43;9.33;;;21.60;99.90;;;;;;5075636;28;20165;-63
2023/06/25 00:20:26;;;;;;;9.27;8.30;;;21.60;99.90;;;;;;5091913;28;20195;-63
2023/06/25 00:22:52;;;;;;;12.07;8.77;;;21.60;99.90;;;;;;5058133;28;20190;-63
2023/06/25 00:25:18;;;;;;;11.17;8.33;;;21.50;99.90;;;;;;5075577;28;20168;-63
2023/06/25 00:27:47;;;;;;;10.33;9.00;;;21.50;99.90;;;;;;5058229;28;20180;-63
2023/06/25 00:30:15;;;;;;;12.07;9.27;;;21.50;99.90;;;;;;5058311;28;20203;-63
2023/06/25 00:32:41;;;;;;;12.70;9.50;;;21.50;99.90;;;;;;5058193;28;20219;-63
2023/06/25 00:35:08;;;;;;;11.30;9.37;;;21.50;99.90;;;;;;5058307;28;20175;-62
2023/06/25 00:37:36;;;;;;;9.97;7.77;;;21.40;99.90;;;;;;5057110;28;20172;-62
2023/06/25 00:40:03;;;;;;;12.80;9.40;;;21.40;99.90;;;;;;5092717;28;20173;-62
2023/06/25 00:42:40;;;;;;;10.77;8.80;;;21.40;99.90;;;;;;5076831;28;20248;-62
2023/06/25 00:45:11;;;;;;;9.40;8.40;;;21.40;99.90;;;;;;5060458;28;20184;-63
2023/06/25 00:47:37;;;;;;;12.33;9.67;;;21.30;99.90;;;;;;5060461;28;20185;-63
2023/06/25 00:50:04;;;;;;;13.00;9.53;;;21.30;99.90;;;;;;5078399;28;20238;-63
2023/06/25 00:52:31;;;;;;;11.13;9.27;;;21.30;99.90;;;;;;5060882;28;20292;-63
2023/06/25 00:54:57;;;;;;;14.60;10.17;;;21.30;99.90;;;;;;5061132;28;20180;-62
2023/06/25 00:57:27;;;;;;;14.87;10.90;;;21.20;99.90;;;;;;5061548;28;20459;-62
2023/06/25 00:59:53;;;;;;;11.47;10.10;;;21.20;99.90;;;;;;5060222;28;20185;-60
2023/06/25 01:02:44;;;;;;;16.27;11.27;;;21.20;99.90;;;;;;5059234;28;20261;-58
2023/06/25 01:05:25;;;;;;;12.13;10.20;;;21.30;99.90;;;;;;5057071;28;20183;-59
2023/06/25 01:07:52;;;;;;;11.60;9.57;;;21.30;99.90;;;;;;5057225;28;20429;-59
2023/06/25 01:10:19;;;;;;;13.53;10.37;;;21.30;99.90;;;;;;5040396;28;20376;-59
2023/06/25 01:12:45;;;;;;;14.17;10.50;;;21.40;99.90;;;;;;5058581;28;20637;-60
2023/06/25 01:15:10;;;;;;;14.20;11.20;;;21.40;99.90;;;;;;5056803;28;20180;-59
2023/06/25 01:17:39;;;;;;;11.70;10.40;;;21.40;99.90;;;;;;5074519;28;20176;-59
2023/06/25 01:20:13;;;;;;;13.73;10.27;;;21.30;99.90;;;;;;5092140;28;20533;-58
2023/06/25 01:22:42;;;;;;;14.97;10.63;;;21.30;99.90;;;;;;5075315;28;20168;-59
2023/06/25 01:25:09;;;;;;;13.87;10.67;;;21.30;99.90;;;;;;5057085;28;20470;-59
2023/06/25 01:27:36;;;;;;;12.70;10.40;;;21.30;99.90;;;;;;5075582;28;20238;-59
2023/06/25 01:30:03;;;;;;;12.43;10.13;;;21.30;99.90;;;;;;5058112;28;20279;-59
2023/06/25 01:32:29;;;;;;;12.37;9.43;;;21.30;99.90;;;;;;5056893;28;20196;-56
2023/06/25 01:34:55;;;;;;;16.30;11.40;;;21.30;99.90;;;;;;5056966;28;20176;-59
2023/06/25 01:37:21;;;;;;;14.20;11.10;;;21.30;99.90;;;;;;5057882;28;20176;-59
2023/06/25 01:39:52;;;;;;;14.90;10.93;;;21.30;99.90;;;;;;5074909;28;20185;-59
2023/06/25 01:42:18;;;;;;;13.20;10.97;;;21.30;99.90;;;;;;5057657;28;20238;-59
2023/06/25 01:44:43;;;;;;;14.77;11.57;;;21.20;99.90;;;;;;5073181;28;20168;-59
2023/06/25 01:47:09;;;;;;;13.50;10.90;;;21.10;99.90;;;;;;5056501;28;20173;-58
2023/06/25 01:49:35;;;;;;;12.93;9.97;;;21.00;99.90;;;;;;5055651;28;20180;-60
2023/06/25 01:52:02;;;;;;;11.93;10.73;;;21.10;99.90;;;;;;5057661;28;20277;-60
2023/06/25 01:54:28;;;;;;;15.67;11.30;;;21.10;99.90;;;;;;5058218;28;20416;-58
2023/06/25 01:56:57;;;;;;;12.27;10.97;;;21.00;99.90;;;;;;5074299;28;20272;-55
2023/06/25 01:59:23;;;;;;;11.17;9.80;;;21.00;99.90;;;;;;5091719;28;20457;-59
2023/06/25 02:01:48;;;;;;;12.30;10.97;;;21.00;99.90;;;;;;5090766;28;20644;-60
2023/06/25 02:04:14;;;;;;;11.77;10.57;;;21.00;99.90;;;;;;5057222;28;20177;-60
2023/06/25 02:06:40;;;;;;;12.33;10.13;;;21.00;99.90;;;;;;5056781;28;20219;-60
2023/06/25 02:09:07;;;;;;;12.07;10.40;;;21.00;99.90;;;;;;5073939;28;20553;-60
2023/06/25 02:11:32;;;;;;;11.60;10.13;;;21.00;99.90;;;;;;5057047;28;20177;-58
2023/06/25 02:13:58;;;;;;;14.20;10.90;;;21.00;99.90;;;;;;5057378;28;20207;-59
2023/06/25 02:16:24;;;;;;;12.87;10.23;;;20.90;99.90;;;;;;5057989;28;20519;-60
2023/06/25 02:18:50;;;;;;;13.87;10.33;;;20.90;99.90;;;;;;5058141;28;20176;-58
2023/06/25 02:21:15;;;;;;;15.13;11.37;;;20.80;99.90;;;;;;5059399;28;20201;-60
2023/06/25 02:23:41;;;;;;;13.30;10.90;;;20.80;99.90;;;;;;5062021;28;20173;-59
2023/06/25 02:26:06;;;;;;;12.30;10.80;;;20.70;99.90;;;;;;5062247;28;20260;-59
2023/06/25 02:28:32;;;;;;;22.40;11.27;;;20.70;99.90;;;;;;5061194;28;20186;-60
2023/06/25 02:30:58;;;;;;;11.97;10.07;;;20.60;99.90;;;;;;5060578;28;20179;-60
2023/06/25 02:33:23;;;;;;;11.00;9.83;;;20.60;99.90;;;;;;5075731;28;20289;-59
2023/06/25 02:35:50;;;;;;;13.73;10.53;;;20.60;99.90;;;;;;5093237;28;20252;-59
2023/06/25 02:38:15;;;;;;;13.13;10.10;;;20.60;99.90;;;;;;5076397;28;20239;-60
2023/06/25 02:40:41;;;;;;;17.67;11.77;;;20.60;99.90;;;;;;5076058;28;20513;-60
2023/06/25 02:43:07;;;;;;;13.27;11.33;;;20.60;99.90;;;;;;5056152;28;20221;-60
2023/06/25 02:45:32;;;;;;;14.87;11.33;;;20.50;99.90;;;;;;5056862;28;20169;-58
2023/06/25 02:47:58;;;;;;;12.30;10.47;;;20.50;99.90;;;;;;5057629;28;20181;-60
2023/06/25 02:50:24;;;;;;;14.97;11.17;;;20.50;99.90;;;;;;5056883;28;20172;-59
2023/06/25 02:52:49;;;;;;;13.67;10.33;;;20.50;99.90;;;;;;5072294;28;20216;-60
2023/06/25 02:55:15;;;;;;;11.67;10.40;;;20.50;99.90;;;;;;5055452;28;20452;-60
2023/06/25 02:57:40;;;;;;;15.63;10.87;;;20.50;99.90;;;;;;5056187;28;20169;-59
2023/06/25 03:00:07;;;;;;;13.17;11.47;;;20.50;99.90;;;;;;5055777;28;20162;-57
2023/06/25 03:02:33;;;;;;;14.63;10.93;;;20.40;99.90;;;;;;5055166;28;20173;-58
2023/06/25 03:04:58;;;;;;;12.77;10.63;;;20.40;99.90;;;;;;5055089;28;20177;-56
2023/06/25 03:07:24;;;;;;;11.90;9.83;;;20.30;99.90;;;;;;5056016;28;20253;-55
2023/06/25 03:09:50;;;;;;;11.57;10.23;;;20.40;99.90;;;;;;5055443;28;20498;-56
2023/06/25 03:12:16;;;;;;;13.00;10.43;;;20.30;99.90;;;;;;5056430;28;20229;-59
2023/06/25 03:14:41;;;;;;;14.67;10.40;;;20.40;99.90;;;;;;5055554;28;20411;-57
2023/06/25 03:17:07;;;;;;;12.40;10.20;;;20.30;99.90;;;;;;5070953;28;20200;-56
2023/06/25 03:19:33;;;;;;;13.23;11.00;;;20.30;99.90;;;;;;5055569;28;20170;-57
2023/06/25 03:22:33;;;;;;;13.07;11.23;;;20.30;99.90;;;;;;5057353;28;20208;-55
2023/06/25 03:24:59;;;;;;;12.57;11.27;;;20.30;99.90;;;;;;5056720;28;20283;-59
2023/06/25 03:27:24;;;;;;;14.83;11.63;;;20.40;99.90;;;;;;5057441;28;20272;-60
2023/06/25 03:29:50;;;;;;;16.73;11.70;;;20.30;99.90;;;;;;5056887;28;20221;-60
2023/06/25 03:32:16;;;;;;;12.07;10.70;;;20.20;99.90;;;;;;5054303;28;20165;-60
2023/06/25 03:34:41;;;;;;;13.77;11.30;;;20.20;99.90;;;;;;5055040;28;20161;-58
2023/06/25 03:37:07;;;;;;;15.10;12.43;;;20.20;99.90;;;;;;5054709;28;20250;-59
2023/06/25 03:39:32;;;;;;;12.93;10.90;;;20.20;99.90;;;;;;5071162;28;20286;-59
2023/06/25 03:41:58;;;;;;;14.47;11.50;;;20.20;99.90;;;;;;5064282;28;20222;-59
2023/06/25 03:44:24;;;;;;;14.43;11.77;;;20.20;99.90;;;;;;5074193;28;20588;-57
2023/06/25 03:46:49;;;;;;;12.53;11.13;;;20.20;99.90;;;;;;5075920;28;20609;-58
2023/06/25 03:49:15;;;;;;;13.17;11.73;;;20.20;99.90;;;;;;5057054;28;20190;-57
2023/06/25 03:51:41;;;;;;;14.70;11.97;;;20.20;99.90;;;;;;5091542;28;20172;-57
2023/06/25 03:54:06;;;;;;;13.83;11.07;;;20.20;99.90;;;;;;5075550;28;20212;-56
2023/06/25 03:56:32;;;;;;;13.97;11.50;;;20.20;99.90;;;;;;5058629;28;20520;-58
2023/06/25 03:58:57;;;;;;;15.87;12.87;;;20.10;99.90;;;;;;5060379;28;20173;-59
2023/06/25 04:01:23;;;;;;;14.77;11.43;;;20.20;99.90;;;;;;5057438;28;20274;-57
2023/06/25 04:03:49;;;;;;;12.90;11.37;;;20.10;99.90;;;;;;5090290;28;20184;-58
2023/06/25 04:06:15;;;;;;;14.43;12.43;;;20.20;99.90;;;;;;5089764;28;20283;-59
2023/06/25 04:08:41;;;;;;;13.13;11.73;;;20.10;99.90;;;;;;5057447;28;20664;-58
2023/06/25 04:11:07;;;;;;;15.63;12.50;;;20.10;99.90;;;;;;5076000;28;20243;-60
2023/06/25 04:13:32;;;;;;;11.80;10.47;;;20.10;99.90;;;;;;5056774;28;20298;-60
2023/06/25 04:15:58;;;;;;;14.13;11.60;;;20.10;99.90;;;;;;5072461;28;20165;-55
2023/06/25 04:18:23;;;;;;;15.63;12.17;;;20.10;99.90;;;;;;5073325;28;20172;-57
2023/06/25 04:20:49;;;;;;;14.07;11.30;;;20.10;99.90;;;;;;5073493;28;20168;-58
2023/06/25 04:23:15;;;;;;;14.93;12.17;;;20.10;99.90;;;;;;5056557;28;20203;-59
2023/06/25 04:25:43;;;;;;;13.03;11.70;;;20.20;99.90;;;;;;5057516;28;20522;-57
2023/06/25 04:28:18;;;;;;;14.43;12.03;;;20.10;99.90;;;;;;5057375;28;20598;-57
2023/06/25 04:30:44;;;;;;;13.60;11.73;;;20.10;99.90;;;;;;5057421;28;20184;-59
2023/06/25 04:33:09;;;;;;;13.23;11.13;;;20.10;99.90;;;;;;5056970;28;20657;-62
2023/06/25 04:35:35;;;;;;;15.07;13.23;;;20.10;99.90;;;;;;5090871;28;20175;-60
2023/06/25 04:38:00;;;;;;;13.07;10.57;;;20.10;99.90;;;;;;5075392;28;20234;-60
2023/06/25 04:40:26;;;;;;;13.30;11.20;;;20.10;99.90;;;;;;5075510;28;20177;-59
2023/06/25 04:42:52;;;;;;;12.90;11.53;;;20.10;99.90;;;;;;5054230;28;20248;-57
2023/06/25 04:45:18;;;;;;;14.67;12.07;;;20.20;99.90;;;;;;5052769;28;20177;-58
2023/06/25 04:47:44;;;;;;;14.57;11.83;;;20.20;99.90;;;;;;5068638;28;20182;-58
2023/06/25 04:50:10;;;;;;;16.03;11.90;;;20.10;99.90;;;;;;5053401;28;20457;-60
2023/06/25 04:52:36;;;;;;;17.27;12.67;;;20.10;99.90;;;;;;5052880;28;20463;-59
2023/06/25 04:55:01;;;;;;;15.33;12.67;;;20.10;99.90;;;;;;5051722;28;20626;-60
2023/06/25 04:57:27;;;;;;;13.33;11.27;;;20.10;99.90;;;;;;5052832;28;20199;-57
2023/06/25 04:59:53;;;;;;;14.07;12.03;;;20.10;99.90;;;;;;5051903;28;20193;-59
2023/06/25 05:02:19;;;;;;;13.93;12.13;;;20.20;99.90;;;;;;5068436;28;20489;-60
2023/06/25 05:04:44;;;;;;;11.93;10.23;;;20.20;99.90;;;;;;5054192;28;20215;-59
2023/06/25 05:07:10;;;;;;;12.77;10.40;;;20.20;99.90;;;;;;5070672;28;20223;-57
2023/06/25 05:09:36;;;;;;;10.77;9.67;;;20.20;99.90;;;;;;5055098;28;20228;-58
2023/06/25 05:12:11;;;;;;;10.93;9.70;;;20.20;99.90;;;;;;5056128;28;20174;-59
2023/06/25 05:14:37;;;;;;;10.27;9.17;;;20.30;99.90;;;;;;5055748;28;20448;-60
2023/06/25 05:17:02;;;;;;;8.87;7.90;;;20.30;99.90;;;;;;5069585;28;20176;-59
2023/06/25 05:19:28;;;;;;;9.97;7.77;;;20.30;99.90;;;;;;5052016;28;20173;-59
2023/06/25 05:21:53;;;;;;;10.40;8.90;;;20.30;99.90;;;;;;5068678;28;20166;-59
2023/06/25 05:24:19;;;;;;;8.60;7.57;;;20.30;99.90;;;;;;5053681;28;20169;-59
2023/06/25 05:26:45;;;;;;;7.73;6.97;;;20.30;99.90;;;;;;5069535;28;20192;-59
2023/06/25 05:29:10;;;;;;;8.73;7.47;;;20.30;99.90;;;;;;5069829;28;20536;-59
2023/06/25 05:31:36;;;;;;;6.63;6.03;;;20.40;99.90;;;;;;5054385;28;20170;-59
2023/06/25 05:34:02;;;;;;;6.70;6.00;;;20.40;99.90;;;;;;5056477;28;20201;-57
2023/06/25 05:36:28;;;;;;;5.63;5.13;;;20.40;99.90;;;;;;5055635;28;20533;-59
2023/06/25 05:38:54;;;;;;;6.60;6.00;;;20.40;99.90;;;;;;5053800;28;20423;-59
2023/06/25 05:41:20;;;;;;;7.73;6.20;;;20.40;99.90;;;;;;5053425;28;20627;-57
2023/06/25 05:43:45;;;;;;;5.57;5.07;;;20.40;99.90;;;;;;5052209;28;20166;-60
2023/06/25 05:46:13;;;;;;;6.37;5.77;;;20.40;99.90;;;;;;5050091;28;20177;-58
2023/06/25 05:48:40;;;;;;;6.43;5.83;;;20.50;99.90;;;;;;5067120;28;20181;-60
2023/06/25 05:51:05;;;;;;;5.87;5.27;;;20.50;99.90;;;;;;5051191;28;20182;-59
2023/06/25 05:53:38;;;;;;;4.73;4.30;;;20.50;99.90;;;;;;5049271;28;20472;-57
2023/06/25 05:56:04;;;;;;;5.83;4.83;;;20.50;99.90;;;;;;5047168;28;20177;-58
2023/06/25 05:58:30;;;;;;;5.30;4.80;;;20.50;99.90;;;;;;5048116;28;20455;-58
2023/06/25 06:00:55;;;;;;;6.43;5.77;;;20.50;99.90;;;;;;5047714;28;20393;-58
2023/06/25 06:03:21;;;;;;;6.03;5.53;;;20.60;99.90;;;;;;5048901;28;20173;-57
2023/06/25 06:05:47;;;;;;;7.10;5.70;;;20.60;99.90;;;;;;5047809;28;20181;-57
2023/06/25 06:08:13;;;;;;;7.80;5.63;;;20.60;99.90;;;;;;5049377;28;20201;-56
2023/06/25 06:10:39;;;;;;;5.73;5.17;;;20.60;99.90;;;;;;5049953;28;20215;-58
2023/06/25 06:13:04;;;;;;;6.73;4.90;;;20.60;99.90;;;;;;5051035;28;20240;-59
2023/06/25 06:15:30;;;;;;;6.33;5.30;;;20.60;99.90;;;;;;5051563;28;20243;-56
2023/06/25 06:17:55;;;;;;;6.13;4.60;;;20.70;99.90;;;;;;5051441;28;20166;-59
2023/06/25 06:20:21;;;;;;;5.83;4.83;;;20.70;99.90;;;;;;5051844;28;20200;-59
2023/06/25 06:22:46;;;;;;;5.60;5.07;;;20.70;99.90;;;;;;5051027;28;20500;-60
2023/06/25 06:25:12;;;;;;;5.77;4.70;;;20.70;99.90;;;;;;5049133;28;20181;-59
2023/06/25 06:27:38;;;;;;;4.90;4.03;;;20.70;99.90;;;;;;5047239;28;20205;-59
2023/06/25 06:30:04;;;;;;;4.87;4.47;;;20.70;99.90;;;;;;5044495;28;20161;-57
2023/06/25 06:32:30;;;;;;;6.30;5.67;;;20.70;99.90;;;;;;5044856;28;20207;-56
2023/06/25 06:34:55;;;;;;;7.03;6.00;;;20.70;99.90;;;;;;5043225;28;20462;-58
2023/06/25 06:37:21;;;;;;;9.40;6.53;;;20.80;99.90;;;;;;5042654;28;20170;-60
2023/06/25 06:39:46;;;;;;;7.13;5.67;;;20.80;99.90;;;;;;5060260;28;20170;-59
2023/06/25 06:42:12;;;;;;;5.67;5.17;;;20.80;99.90;;;;;;5067256;28;20348;-58
2023/06/25 06:44:38;;;;;;;5.27;4.60;;;20.80;99.90;;;;;;5042860;28;20361;-56
2023/06/25 06:47:03;;;;;;;7.17;5.63;;;20.80;99.90;;;;;;5074590;28;20633;-58
2023/06/25 06:49:29;;;;;;;7.47;6.07;;;20.90;99.90;;;;;;5044645;28;20161;-58
2023/06/25 06:51:55;;;;;;;8.57;6.47;;;20.90;99.90;;;;;;5041344;28;20272;-58
2023/06/25 06:54:20;;;;;;;7.53;5.13;;;21.00;99.90;;;;;;5039205;28;20193;-58
2023/06/25 06:56:46;;;;;;;7.97;5.20;;;20.90;99.90;;;;;;5039194;28;20182;-59
2023/06/25 06:59:12;;;;;;;4.87;4.47;;;21.00;99.90;;;;;;5074752;28;20176;-58
2023/06/25 07:01:37;;;;;;;4.90;4.40;;;21.00;99.90;;;;;;5041427;28;20170;-59
2023/06/25 07:04:03;;;;;;;6.00;4.50;;;21.00;99.90;;;;;;5075002;28;20461;-59
2023/06/25 07:06:29;;;;;;;4.70;4.30;;;21.10;99.90;;;;;;5078820;28;20362;-56
2023/06/25 07:08:55;;;;;;;5.20;4.67;;;21.10;99.90;;;;;;5048764;28;20212;-57
2023/06/25 07:11:20;;;;;;;6.77;5.40;;;21.10;99.90;;;;;;5049505;28;20182;-57
2023/06/25 07:13:47;;;;;;;7.03;5.10;;;21.10;99.90;;;;;;5080171;28;20205;-59
2023/06/25 07:16:13;;;;;;;6.67;5.53;;;21.20;99.90;;;;;;5045020;28;20172;-58
2023/06/25 07:18:38;;;;;;;6.97;6.27;;;21.20;99.90;;;;;;5048535;28;20342;-59
2023/06/25 07:21:05;;;;;;;6.13;5.13;;;21.30;99.90;;;;;;5046937;28;20161;-59
2023/06/25 07:23:32;;;;;;;4.70;4.30;;;21.20;99.90;;;;;;5079838;28;20181;-59
2023/06/25 07:25:58;;;;;;;6.57;5.87;;;21.20;99.90;;;;;;5048299;28;20184;-55
2023/06/25 07:28:24;;;;;;;5.90;5.30;;;21.30;99.90;;;;;;5082158;28;20169;-59
2023/06/25 07:30:49;;;;;;;6.20;5.27;;;21.30;99.90;;;;;;5052221;28;20197;-58
2023/06/25 07:33:15;;;;;;;5.03;4.53;;;21.30;99.90;;;;;;5051649;28;20193;-59
2023/06/25 07:35:40;;;;;;;7.30;5.70;;;21.30;99.90;;;;;;5053273;28;20545;-58
2023/06/25 07:38:06;;;;;;;5.67;4.67;;;21.40;99.90;;;;;;5086525;28;20162;-59
2023/06/25 07:40:32;;;;;;;6.43;5.83;;;21.40;99.90;;;;;;5084886;28;20288;-59
2023/06/25 07:42:57;;;;;;;6.70;6.03;;;21.50;99.90;;;;;;5083427;28;20764;-59
2023/06/25 07:45:23;;;;;;;7.37;5.63;;;21.50;99.90;;;;;;5082165;28;20176;-59
2023/06/25 07:47:49;;;;;;;5.33;4.90;;;21.60;99.90;;;;;;5050142;28;20692;-57
2023/06/25 07:50:14;;;;;;;7.87;5.60;;;21.60;99.90;;;;;;5083222;28;20272;-57
2023/06/25 07:52:40;;;;;;;5.63;4.87;;;21.70;99.90;;;;;;5081998;28;20212;-58
2023/06/25 07:55:06;;;;;;;7.40;6.70;;;21.70;99.90;;;;;;5083437;28;20366;-59
2023/06/25 07:57:31;;;;;;;5.50;5.00;;;21.70;99.90;;;;;;5047346;28;20169;-58
2023/06/25 07:59:57;;;;;;;6.53;5.87;;;21.80;99.90;;;;;;5080022;28;20165;-56
2023/06/25 08:02:23;;;;;;;5.83;5.17;;;21.80;99.90;;;;;;5045240;28;20161;-57
2023/06/25 08:04:49;;;;;;;5.07;4.57;;;21.80;99.90;;;;;;5043844;28;20331;-56
2023/06/25 08:07:14;;;;;;;6.30;5.07;;;21.80;99.90;;;;;;5044976;28;20322;-59
2023/06/25 08:09:41;;;;;;;6.43;5.83;;;21.90;99.90;;;;;;5045509;28;20166;-59
2023/06/25 08:12:07;;;;;;;7.43;6.73;;;21.90;99.90;;;;;;5078624;28;20173;-57
2023/06/25 08:14:33;;;;;;;5.93;5.23;;;22.00;99.90;;;;;;5080455;28;20208;-59
2023/06/25 08:16:58;;;;;;;7.40;5.20;;;22.10;99.90;;;;;;5078032;28;20223;-59
2023/06/25 08:19:24;;;;;;;7.97;7.17;;;22.10;99.90;;;;;;5081566;28;20363;-58
2023/06/25 08:21:49;;;;;;;5.70;5.20;;;22.30;99.90;;;;;;5082058;28;20197;-57
2023/06/25 08:24:15;;;;;;;6.80;5.40;;;22.30;99.90;;;;;;5081687;28;20185;-58
2023/06/25 08:26:41;;;;;;;6.03;5.23;;;22.20;99.90;;;;;;5051316;28;20638;-58
2023/06/25 08:29:06;;;;;;;6.73;6.00;;;22.20;99.90;;;;;;5084240;28;20165;-59
2023/06/25 08:31:33;;;;;;;7.93;6.20;;;22.40;99.90;;;;;;5084219;28;20166;-56
2023/06/25 08:33:59;;;;;;;8.17;5.93;;;22.40;99.90;;;;;;5051205;28;20208;-56
2023/06/25 08:36:25;;;;;;;6.57;5.97;;;22.40;99.90;;;;;;5084903;28;20173;-58
2023/06/25 08:38:50;;;;;;;8.70;7.63;;;22.50;99.90;;;;;;5053148;28;20280;-58
2023/06/25 08:41:16;;;;;;;11.70;7.10;;;22.60;99.90;;;;;;5084595;28;20173;-55
2023/06/25 08:43:41;;;;;;;7.47;5.57;;;22.60;99.90;;;;;;5087392;28;20465;-58
2023/06/25 08:46:08;;;;;;;8.60;7.67;;;22.60;99.90;;;;;;5086693;28;20222;-56
2023/06/25 08:48:36;;;;;;;6.03;5.43;;;22.70;99.90;;;;;;5084975;28;20336;-58
2023/06/25 08:51:08;;;;;;;9.87;7.80;;;22.70;99.90;;;;;;5085608;28;20259;-57
2023/06/25 08:53:35;;;;;;;8.53;6.67;;;22.70;99.90;;;;;;5052369;28;20224;-59
2023/06/25 08:56:03;;;;;;;6.17;5.67;;;22.70;99.90;;;;;;5050739;28;20545;-58
2023/06/25 08:58:29;;;;;;;7.50;6.40;;;22.60;99.90;;;;;;5051598;28;20330;-59
2023/06/25 09:00:55;;;;;;;9.17;6.63;;;22.70;99.90;;;;;;5068353;28;20168;-58
2023/06/25 09:03:20;;;;;;;8.43;7.50;;;22.80;99.90;;;;;;5067543;28;20413;-57
2023/06/25 09:05:57;;;;;;;8.93;7.07;;;22.90;99.90;;;;;;5070175;28;20175;-57
2023/06/25 09:08:24;;;;;;;7.17;5.60;;;22.90;99.90;;;;;;5050779;28;20251;-59
2023/06/25 09:10:52;;;;;;;6.00;5.40;;;22.90;99.90;;;;;;5048167;28;20421;-59
2023/06/25 09:13:26;;;;;;;7.73;6.53;;;22.90;99.90;;;;;;5046869;28;20208;-55
2023/06/25 09:15:59;;;;;;;8.00;7.20;;;23.00;99.90;;;;;;5046337;28;20196;-58
2023/06/25 09:18:25;;;;;;;9.00;8.07;;;23.10;99.90;;;;;;5050605;28;20210;-59
2023/06/25 09:20:51;;;;;;;10.23;7.53;;;23.10;99.90;;;;;;5071087;28;20161;-58
2023/06/25 09:23:23;;;;;;;10.47;7.53;;;23.20;99.90;;;;;;5071621;28;20238;-59
2023/06/25 09:25:50;;;;;;;10.73;5.80;;;23.30;99.90;;;;;;5044646;28;20176;-56
2023/06/25 09:28:16;;;;;;;7.90;7.10;;;23.30;99.90;;;;;;5045158;28;20169;-59
2023/06/25 09:30:42;;;;;;;9.83;7.77;;;23.40;99.90;;;;;;5071510;28;20168;-59
2023/06/25 09:33:10;;;;;;;8.00;6.60;;;23.40;99.90;;;;;;5052572;28;20204;-54
2023/06/25 09:35:36;;;;;;;5.13;4.73;;;23.40;99.90;;;;;;5067164;28;20157;-55
2023/06/25 09:38:02;;;;;;;8.07;5.77;;;23.40;99.90;;;;;;5049680;28;20161;-54
2023/06/25 09:40:28;;;;;;;9.37;7.40;;;23.30;99.90;;;;;;5051202;28;20168;-56
2023/06/25 09:42:56;;;;;;;7.17;5.87;;;23.60;99.90;;;;;;5085724;28;20542;-55
2023/06/25 09:45:23;;;;;;;6.40;5.70;;;23.60;99.90;;;;;;5052185;28;20221;-53
2023/06/25 09:47:50;;;;;;;7.70;6.10;;;23.60;99.90;;;;;;5051826;28;20233;-57
2023/06/25 09:50:25;;;;;;;5.87;4.70;;;23.50;99.90;;;;;;5053869;28;20181;-54
2023/06/25 09:52:55;;;;;;;6.43;5.33;;;23.50;99.90;;;;;;5056464;28;20200;-57
2023/06/25 09:55:21;;;;;;;7.20;6.27;;;23.50;99.90;;;;;;5056440;28;20183;-52
2023/06/25 09:57:48;;;;;;;7.53;6.83;;;23.50;99.90;;;;;;5089361;28;20195;-57
2023/06/25 10:00:16;;;;;;;7.40;6.37;;;23.50;99.90;;;;;;5056041;28;20168;-54
2023/06/25 10:02:44;;;;;;;10.50;7.83;;;23.60;99.90;;;;;;5055763;28;20534;-52
2023/06/25 10:05:11;;;;;;;6.27;5.67;;;23.70;99.90;;;;;;5073508;28;20156;-51
2023/06/25 10:07:37;;;;;;;6.80;6.13;;;23.70;99.90;;;;;;5056072;28;20165;-56
2023/06/25 10:10:03;;;;;;;9.73;6.90;;;23.80;99.90;;;;;;5055294;28;20618;-56
2023/06/25 10:12:48;;;;;;;6.50;5.87;;;23.90;99.90;;;;;;5072779;28;20176;-57
2023/06/25 10:15:14;;;;;;;8.53;6.70;;;23.90;99.90;;;;;;5055364;28;20708;-56
2023/06/25 10:18:06;;;;;;;6.80;6.13;;;23.90;99.90;;;;;;5072057;28;20177;-56
2023/06/25 10:20:36;;;;;;;8.53;6.37;;;24.00;99.90;;;;;;5067185;28;20271;-55
2023/06/25 10:23:10;;;;;;;7.07;6.37;;;24.20;99.90;;;;;;5071609;28;20203;-57
2023/06/25 10:25:39;;;;;;;7.20;6.10;;;24.20;99.90;;;;;;5053577;28;20248;-55
2023/06/25 10:28:08;;;;;;;11.03;6.50;;;24.20;99.90;;;;;;5053339;28;20271;-57
2023/06/25 10:30:47;;;;;;;6.30;5.67;;;24.20;99.90;;;;;;5052808;28;20168;-55
2023/06/25 10:33:15;;;;;;;5.73;5.20;;;24.20;99.90;;;;;;5054829;28;20280;-55
2023/06/25 10:35:43;;;;;;;6.23;5.63;;;24.20;99.90;;;;;;5055144;28;20229;-56
2023/06/25 10:38:09;;;;;;;5.90;5.40;;;24.20;99.90;;;;;;5053658;28;20726;-57
2023/06/25 10:40:39;;;;;;;5.77;5.20;;;24.20;99.90;;;;;;5053490;28;20681;-56
2023/06/25 10:43:05;;;;;;;7.93;6.50;;;24.20;99.90;;;;;;5056167;28;20318;-56
2023/06/25 10:45:32;;;;;;;7.37;6.67;;;24.20;99.90;;;;;;5059381;28;20272;-55
2023/06/25 10:48:15;;;;;;;6.27;5.73;;;24.30;99.90;;;;;;5059489;28;20168;-55
2023/06/25 10:50:41;;;;;;;6.63;5.57;;;24.30;99.90;;;;;;5089482;28;20214;-56
2023/06/25 10:53:12;;;;;;;6.57;5.10;;;24.30;99.90;;;;;;5089542;28;20192;-55
2023/06/25 10:55:38;;;;;;;6.73;5.90;;;24.30;99.90;;;;;;5055899;28;20165;-54
2023/06/25 10:58:04;;;;;;;6.10;5.60;;;24.30;99.90;;;;;;5053715;28;20177;-55
2023/06/25 11:00:30;;;;;;;5.70;5.20;;;24.30;99.90;;;;;;5055328;28;20173;-55
2023/06/25 11:02:57;;;;;;;8.70;6.57;;;24.40;99.90;;;;;;5055990;28;20228;-57
2023/06/25 11:05:35;;;;;;;6.10;5.50;;;24.40;99.90;;;;;;5073945;28;20169;-56
2023/06/25 11:08:04;;;;;;;6.03;5.43;;;24.40;99.90;;;;;;5055970;28;20240;-54
2023/06/25 11:10:31;;;;;;;6.83;6.23;;;24.50;99.90;;;;;;5071711;28;20169;-54
2023/06/25 11:12:58;;;;;;;5.40;4.90;;;24.50;99.90;;;;;;5070002;28;20498;-54
2023/06/25 11:15:24;;;;;;;7.00;6.30;;;24.50;99.90;;;;;;5070215;28;20172;-56
2023/06/25 11:17:54;;;;;;;7.37;6.67;;;24.50;99.90;;;;;;5071038;28;20157;-56
2023/06/25 11:20:23;;;;;;;5.90;5.40;;;24.50;99.90;;;;;;5071575;28;20197;-57
2023/06/25 11:22:49;;;;;;;7.67;6.60;;;24.60;99.90;;;;;;5070967;28;20805;-54
2023/06/25 11:25:15;;;;;;;6.57;5.30;;;24.80;99.90;;;;;;5052499;28;20288;-56
2023/06/25 11:27:42;;;;;;;6.10;5.47;;;24.80;99.90;;;;;;5049588;28;20286;-55
2023/06/25 11:30:09;;;;;;;6.17;5.30;;;24.90;99.90;;;;;;5050667;28;20173;-52
2023/06/25 11:32:37;;;;;;;6.13;5.60;;;24.90;99.90;;;;;;5052412;28;20199;-55
2023/06/25 11:35:11;;;;;;;6.97;6.27;;;25.10;99.90;;;;;;5053201;28;20165;-57
2023/06/25 11:37:49;;;;;;;9.17;5.97;;;25.20;99.90;;;;;;5054059;28;20179;-53
2023/06/25 11:40:25;;;;;;;8.57;6.13;;;25.20;99.90;;;;;;5070483;28;20169;-53
2023/06/25 11:42:51;;;;;;;7.17;6.20;;;25.30;99.90;;;;;;5053822;28;20236;-53
2023/06/25 11:45:18;;;;;;;6.23;5.63;;;25.30;99.90;;;;;;5052920;28;20220;-54
2023/06/25 11:47:45;;;;;;;6.63;5.93;;;25.30;99.90;;;;;;5047756;28;20203;-57
2023/06/25 11:50:11;;;;;;;5.80;5.03;;;25.30;99.90;;;;;;5063504;28;20566;-54
2023/06/25 11:52:38;;;;;;;5.63;5.13;;;25.30;99.90;;;;;;5043772;28;20519;-52
2023/06/25 11:55:05;;;;;;;5.37;4.40;;;25.30;99.90;;;;;;5060370;28;20169;-55
2023/06/25 11:57:31;;;;;;;4.60;4.20;;;25.50;99.90;;;;;;5045524;28;20590;-55
2023/06/25 11:59:56;;;;;;;5.37;4.87;;;25.60;99.90;;;;;;5080486;28;20334;-54
2023/06/25 12:02:22;;;;;;;7.07;4.70;;;25.70;99.90;;;;;;5079165;28;20208;-55
2023/06/25 12:04:48;;;;;;;5.15;4.65;;;25.90;99.90;;;;;;5080371;28;20176;-53
2023/06/25 12:07:14;;;;;;;6.90;4.85;;;26.00;99.90;;;;;;5078882;28;20667;-56
2023/06/25 12:09:40;;;;;;;5.13;4.63;;;26.10;99.90;;;;;;5078807;28;20256;-54
2023/06/25 12:12:06;;;;;;;6.63;5.93;;;26.20;99.90;;;;;;5063049;28;20168;-52
2023/06/25 12:14:32;;;;;;;6.03;4.75;;;26.30;99.90;;;;;;5060826;28;20204;-53
2023/06/25 12:16:57;;;;;;;8.05;5.55;;;26.30;99.90;;;;;;5044294;28;20473;-54
2023/06/25 12:19:23;;;;;;;5.28;4.68;;;26.50;99.90;;;;;;5079799;28;20220;-55
2023/06/25 12:21:49;;;;;;;6.13;5.60;;;26.40;99.90;;;;;;5077899;28;20165;-56
2023/06/25 12:24:15;;;;;;;4.93;4.53;;;26.40;99.90;;;;;;5058843;28;20307;-56
2023/06/25 12:26:40;;;;;;;5.07;4.53;;;26.40;99.90;;;;;;5076036;28;20253;-54
2023/06/25 12:29:06;;;;;;;5.20;4.80;;;26.40;99.90;;;;;;5073240;28;20176;-55
2023/06/25 12:31:32;;;;;;;8.50;5.65;;;26.40;99.90;;;;;;5057150;28;20530;-56
2023/06/25 12:33:58;;;;;;;5.55;4.97;;;26.60;99.90;;;;;;5073697;28;20204;-54
2023/06/25 12:36:23;;;;;;;6.50;4.60;;;26.70;99.90;;;;;;5073618;28;20175;-55
2023/06/25 12:38:49;;;;;;;5.22;4.72;;;26.70;99.90;;;;;;5057986;28;20521;-54